Time;durP1;ratioP1;P1;durP2;ratioP2;P2;SDS_P1;SDS_P2;PMS_P1;PMS_P2;Temp;Humidity;BMP_temperature;BMP_pressure;BME280_temperature;BME280_humidity;BME280_pressure;Samples;Min_cycle;Max_cycle;Signal;HPM_P1;HPM_P2
2021/09/29 00:01:08;;;;;;;7.70;2.77;;;14.30;99.90;;;;;;6144565;23;20415;-87
2021/09/29 00:03:36;;;;;;;5.67;2.67;;;14.20;99.90;;;;;;6140402;23;20419;-85
2021/09/29 00:06:04;;;;;;;5.67;2.43;;;14.20;99.90;;;;;;6118191;23;20411;-86
2021/09/29 00:08:31;;;;;;;6.40;2.80;;;14.20;99.90;;;;;;6118675;23;20925;-86
2021/09/29 00:10:58;;;;;;;5.67;2.63;;;14.10;99.90;;;;;;6123587;23;20456;-84
2021/09/29 00:13:26;;;;;;;5.80;3.83;;;14.20;99.90;;;;;;6096301;23;20418;-86
2021/09/29 00:15:53;;;;;;;5.53;2.40;;;14.20;99.90;;;;;;6123358;23;20532;-87
2021/09/29 00:18:21;;;;;;;3.30;2.20;;;14.20;99.90;;;;;;6117479;23;20443;-86
2021/09/29 00:20:48;;;;;;;3.63;2.70;;;14.20;99.90;;;;;;6114420;23;20407;-86
2021/09/29 00:23:15;;;;;;;5.10;3.03;;;14.20;99.90;;;;;;6120284;23;20892;-86
2021/09/29 00:25:42;;;;;;;4.00;2.50;;;14.20;99.90;;;;;;6117982;23;20954;-84
2021/09/29 00:28:09;;;;;;;5.67;2.57;;;14.10;99.90;;;;;;6094563;23;20415;-87
2021/09/29 00:31:01;;;;;;;7.53;3.07;;;14.10;99.90;;;;;;6114215;23;20415;-86
2021/09/29 00:33:29;;;;;;;8.20;2.80;;;14.10;99.90;;;;;;6120029;23;20415;-85
2021/09/29 00:35:55;;;;;;;5.33;2.33;;;14.10;99.90;;;;;;6099205;23;20422;-87
2021/09/29 00:38:22;;;;;;;5.97;2.60;;;14.00;99.90;;;;;;6121687;23;20459;-87
2021/09/29 00:40:50;;;;;;;5.93;3.03;;;14.10;99.90;;;;;;6120637;23;20422;-85
2021/09/29 00:43:17;;;;;;;5.63;2.23;;;14.10;99.90;;;;;;6119050;23;20419;-84
2021/09/29 00:45:44;;;;;;;2.93;2.63;;;14.00;99.90;;;;;;6120129;23;20925;-87
2021/09/29 00:48:10;;;;;;;4.07;2.30;;;13.90;99.90;;;;;;6115581;23;20425;-84
2021/09/29 00:50:37;;;;;;;3.30;2.50;;;13.80;99.90;;;;;;6119781;23;20422;-84
2021/09/29 00:53:04;;;;;;;9.13;3.03;;;14.00;99.90;;;;;;6118795;23;20661;-85
2021/09/29 00:55:32;;;;;;;7.90;2.87;;;14.00;99.90;;;;;;6122859;23;20962;-85
2021/09/29 00:57:59;;;;;;;5.93;2.77;;;14.00;99.90;;;;;;6115768;23;20806;-86
2021/09/29 01:00:26;;;;;;;5.30;2.77;;;13.90;99.90;;;;;;6121443;23;21148;-87
2021/09/29 01:02:53;;;;;;;6.43;3.10;;;13.80;99.90;;;;;;6116660;23;20509;-85
2021/09/29 01:05:20;;;;;;;7.47;3.00;;;13.80;99.90;;;;;;6119888;23;20531;-87
2021/09/29 01:08:16;;;;;;;6.97;2.90;;;13.70;99.90;;;;;;6119543;23;20418;-87
2021/09/29 01:10:52;;;;;;;7.93;3.60;;;13.70;99.90;;;;;;6120006;23;20391;-85
2021/09/29 01:13:22;;;;;;;3.67;2.73;;;13.70;99.90;;;;;;6126548;23;20402;-87
2021/09/29 01:15:51;;;;;;;6.70;3.37;;;13.70;99.90;;;;;;6139870;23;20411;-86
2021/09/29 01:18:22;;;;;;;3.43;2.53;;;13.60;99.90;;;;;;6129571;23;20530;-86
2021/09/29 01:20:58;;;;;;;4.40;3.07;;;13.60;99.90;;;;;;6119256;23;20494;-86
2021/09/29 01:24:06;;;;;;;4.13;2.63;;;13.60;99.90;;;;;;6112142;23;20414;-84
2021/09/29 01:26:36;;;;;;;5.00;2.20;;;13.70;99.90;;;;;;6117188;23;20418;-85
2021/09/29 01:29:15;;;;;;;3.37;2.30;;;13.60;99.90;;;;;;6117291;23;20459;-86
2021/09/29 01:31:43;;;;;;;4.40;3.10;;;13.60;99.90;;;;;;6114345;23;21146;-87
2021/09/29 01:34:11;;;;;;;8.40;3.27;;;13.60;99.90;;;;;;6106540;23;20739;-87
2021/09/29 01:36:39;;;;;;;6.90;2.63;;;13.60;99.90;;;;;;6116977;23;20655;-86
2021/09/29 01:39:10;;;;;;;4.00;2.37;;;13.50;99.90;;;;;;6115067;23;20454;-84
2021/09/29 01:41:39;;;;;;;5.50;3.30;;;13.60;99.90;;;;;;6136772;23;20772;-87
2021/09/29 01:44:06;;;;;;;8.00;3.00;;;13.50;99.90;;;;;;6120088;23;20415;-84
2021/09/29 01:46:33;;;;;;;9.93;3.00;;;13.60;99.90;;;;;;6115855;23;20436;-87
2021/09/29 01:49:03;;;;;;;2.70;2.20;;;13.60;99.90;;;;;;6114171;23;20446;-86
2021/09/29 01:51:37;;;;;;;8.07;2.67;;;13.60;99.90;;;;;;6123066;23;20419;-86
2021/09/29 01:54:06;;;;;;;7.43;4.37;;;13.50;99.90;;;;;;6119028;23;20430;-85
2021/09/29 01:56:34;;;;;;;4.40;2.60;;;13.50;99.90;;;;;;6118572;23;20450;-85
2021/09/29 01:59:05;;;;;;;6.27;2.53;;;13.50;99.90;;;;;;6102459;23;20942;-84
2021/09/29 02:01:36;;;;;;;3.50;2.47;;;13.60;99.90;;;;;;6114633;23;21555;-84
2021/09/29 02:04:05;;;;;;;5.47;2.50;;;13.70;99.90;;;;;;6116254;23;20956;-85
2021/09/29 02:06:47;;;;;;;5.33;2.90;;;13.60;99.90;;;;;;6090475;23;20418;-86
2021/09/29 02:09:16;;;;;;;7.43;3.20;;;13.70;99.90;;;;;;6118619;23;20513;-88
2021/09/29 02:11:44;;;;;;;3.40;2.57;;;13.80;99.90;;;;;;6115709;23;20950;-86
2021/09/29 02:14:11;;;;;;;9.03;2.90;;;13.80;99.90;;;;;;6091716;23;20516;-85
2021/09/29 02:16:38;;;;;;;4.50;2.60;;;13.70;99.90;;;;;;6116908;23;20925;-88
2021/09/29 02:19:05;;;;;;;4.57;2.80;;;13.60;99.90;;;;;;6091879;23;20513;-87
2021/09/29 02:21:32;;;;;;;5.13;3.40;;;13.60;99.90;;;;;;6097467;23;20434;-86
2021/09/29 02:23:59;;;;;;;4.33;2.40;;;13.50;99.90;;;;;;6115872;23;20425;-87
2021/09/29 02:26:26;;;;;;;7.03;3.00;;;13.50;99.90;;;;;;6115381;23;21319;-86
2021/09/29 02:28:53;;;;;;;4.80;2.70;;;13.40;99.90;;;;;;6126541;23;20502;-87
2021/09/29 02:31:19;;;;;;;3.73;3.00;;;13.40;99.90;;;;;;6131540;23;20437;-86
2021/09/29 02:33:46;;;;;;;2.77;2.37;;;13.30;99.90;;;;;;6142529;23;20804;-87
2021/09/29 02:36:13;;;;;;;5.00;2.50;;;13.40;99.90;;;;;;6144129;23;20899;-87
2021/09/29 02:38:42;;;;;;;4.37;2.87;;;13.50;99.90;;;;;;6117513;23;20461;-85
2021/09/29 02:41:11;;;;;;;5.20;2.80;;;13.50;99.90;;;;;;6122065;23;20414;-86
2021/09/29 02:43:41;;;;;;;3.30;2.10;;;13.50;99.90;;;;;;6120259;23;20487;-87
2021/09/29 02:46:08;;;;;;;5.73;2.83;;;13.60;99.90;;;;;;6121989;23;20442;-85
2021/09/29 02:48:35;;;;;;;9.13;3.30;;;13.60;99.90;;;;;;6144168;23;20443;-87
2021/09/29 02:51:03;;;;;;;3.43;2.43;;;13.60;99.90;;;;;;6145452;23;20499;-86
2021/09/29 02:53:29;;;;;;;5.10;2.80;;;13.50;99.90;;;;;;6120289;23;20835;-87
2021/09/29 02:55:58;;;;;;;4.20;2.40;;;13.50;99.90;;;;;;6146089;23;20674;-85
2021/09/29 02:58:25;;;;;;;3.43;2.67;;;13.40;99.90;;;;;;6126090;23;20449;-87
2021/09/29 03:00:54;;;;;;;7.00;2.77;;;13.40;99.90;;;;;;6147657;23;20418;-87
2021/09/29 03:03:21;;;;;;;5.10;3.10;;;13.50;99.90;;;;;;6121788;23;20443;-87
2021/09/29 03:05:48;;;;;;;9.20;3.00;;;13.50;99.90;;;;;;6093463;23;20410;-85
2021/09/29 03:08:29;;;;;;;5.10;2.83;;;13.50;99.90;;;;;;6094202;23;20421;-88
2021/09/29 03:11:04;;;;;;;3.47;2.50;;;13.50;99.90;;;;;;6097100;23;20426;-85
2021/09/29 03:13:31;;;;;;;5.83;3.20;;;13.50;99.90;;;;;;6120197;23;20489;-86
2021/09/29 03:15:58;;;;;;;6.53;2.13;;;13.50;99.90;;;;;;6118556;23;20409;-87
2021/09/29 03:18:28;;;;;;;9.03;2.90;;;13.50;99.90;;;;;;6127691;23;20434;-87
2021/09/29 03:20:55;;;;;;;5.40;2.40;;;13.40;99.90;;;;;;6136462;23;20414;-85
2021/09/29 03:23:22;;;;;;;4.07;2.73;;;13.40;99.90;;;;;;6104324;23;20395;-87
2021/09/29 03:25:48;;;;;;;5.70;3.20;;;13.30;99.90;;;;;;6111458;23;20430;-86
2021/09/29 03:28:15;;;;;;;5.40;2.90;;;13.30;99.90;;;;;;6103670;23;20771;-84
2021/09/29 03:30:46;;;;;;;3.70;2.80;;;13.30;99.90;;;;;;6093769;23;20453;-86
2021/09/29 03:33:12;;;;;;;4.03;2.93;;;13.20;99.90;;;;;;6095873;23;20422;-85
2021/09/29 03:35:42;;;;;;;4.37;2.60;;;13.20;99.90;;;;;;6094539;23;20407;-86
2021/09/29 03:38:09;;;;;;;7.77;2.50;;;13.20;99.90;;;;;;6110930;23;20467;-85
2021/09/29 03:40:36;;;;;;;5.37;2.93;;;13.20;99.90;;;;;;6094666;23;20503;-85
2021/09/29 03:43:03;;;;;;;5.70;3.60;;;13.20;99.90;;;;;;6128517;23;20443;-88
2021/09/29 03:45:46;;;;;;;5.80;2.40;;;13.20;99.90;;;;;;6112530;23;20426;-85
2021/09/29 03:48:13;;;;;;;3.20;2.40;;;13.10;99.90;;;;;;6129325;23;20609;-84
2021/09/29 03:50:40;;;;;;;3.90;2.30;;;13.20;99.90;;;;;;6104019;23;20423;-86
2021/09/29 03:53:06;;;;;;;2.90;2.40;;;13.30;99.90;;;;;;6100644;23;20430;-86
2021/09/29 03:55:33;;;;;;;4.67;3.40;;;13.30;99.90;;;;;;6089796;23;20414;-85
2021/09/29 03:58:00;;;;;;;4.70;3.10;;;13.40;99.90;;;;;;6106594;23;20457;-87
2021/09/29 04:00:28;;;;;;;8.90;3.40;;;13.30;99.90;;;;;;6142395;23;21033;-86
2021/09/29 04:02:55;;;;;;;5.53;3.33;;;13.30;99.90;;;;;;6143016;23;21058;-87
2021/09/29 04:05:22;;;;;;;3.30;2.53;;;13.30;99.90;;;;;;6109098;23;20976;-85
2021/09/29 04:07:49;;;;;;;6.90;3.30;;;13.20;99.90;;;;;;6088205;23;20421;-85
2021/09/29 04:10:15;;;;;;;5.00;3.23;;;13.20;99.90;;;;;;6085936;23;20447;-87
2021/09/29 04:12:43;;;;;;;14.67;4.23;;;13.10;99.90;;;;;;6122710;23;20486;-87
2021/09/29 04:15:11;;;;;;;3.33;3.03;;;13.20;99.90;;;;;;6138840;23;20576;-87
2021/09/29 04:17:43;;;;;;;5.27;3.10;;;13.10;99.90;;;;;;6145349;23;20398;-87
2021/09/29 04:20:18;;;;;;;5.73;2.90;;;13.10;99.90;;;;;;6162794;23;20559;-87
2021/09/29 04:22:53;;;;;;;7.70;2.97;;;13.20;99.90;;;;;;6141149;23;20482;-88
2021/09/29 04:25:33;;;;;;;3.30;2.90;;;13.20;99.90;;;;;;6120223;23;20403;-85
2021/09/29 04:28:07;;;;;;;4.23;3.03;;;13.30;99.90;;;;;;6119100;23;20690;-86
2021/09/29 04:30:47;;;;;;;4.33;2.93;;;13.30;99.90;;;;;;6140206;23;20430;-85
2021/09/29 04:33:14;;;;;;;4.17;2.97;;;13.20;99.90;;;;;;6123998;23;20380;-88
2021/09/29 04:35:41;;;;;;;8.13;3.47;;;13.20;99.90;;;;;;6119719;23;20414;-86
2021/09/29 04:38:16;;;;;;;5.73;3.43;;;13.40;99.90;;;;;;6121026;23;20737;-83
2021/09/29 04:40:43;;;;;;;6.20;3.43;;;13.30;99.90;;;;;;6089042;23;20914;-84
2021/09/29 04:43:10;;;;;;;7.67;3.50;;;13.40;99.90;;;;;;6106472;23;20415;-88
2021/09/29 04:45:43;;;;;;;4.60;3.13;;;13.40;99.90;;;;;;6123372;23;20410;-85
2021/09/29 04:48:15;;;;;;;3.67;3.10;;;13.40;99.90;;;;;;6119103;23;20418;-87
2021/09/29 04:50:42;;;;;;;4.27;2.90;;;13.50;99.90;;;;;;6119760;23;20846;-86
2021/09/29 04:53:09;;;;;;;5.27;3.17;;;13.50;99.90;;;;;;6120855;23;20414;-85
2021/09/29 04:55:36;;;;;;;6.10;3.00;;;13.50;99.90;;;;;;6142774;23;20989;-85
2021/09/29 04:58:03;;;;;;;4.60;2.73;;;13.50;99.90;;;;;;6120755;23;20872;-86
2021/09/29 05:00:31;;;;;;;4.57;3.10;;;13.50;99.90;;;;;;6145728;23;20435;-86
2021/09/29 05:02:59;;;;;;;4.37;2.87;;;13.40;99.90;;;;;;6119254;23;20693;-84
2021/09/29 05:05:26;;;;;;;4.90;3.67;;;13.40;99.90;;;;;;6118991;23;20693;-86
2021/09/29 05:07:57;;;;;;;5.00;2.60;;;13.30;99.90;;;;;;6144036;23;20522;-86
2021/09/29 05:10:45;;;;;;;7.30;3.00;;;13.30;99.90;;;;;;6121411;23;20522;-85
2021/09/29 05:13:16;;;;;;;4.47;2.87;;;13.20;99.90;;;;;;6116732;23;20954;-87
2021/09/29 05:15:43;;;;;;;3.70;2.73;;;13.20;99.90;;;;;;6116401;23;20429;-86
2021/09/29 05:18:10;;;;;;;3.60;2.73;;;13.20;99.90;;;;;;6135656;23;20442;-85
2021/09/29 05:20:37;;;;;;;4.70;3.00;;;13.10;99.90;;;;;;6127587;23;20435;-88
2021/09/29 05:23:04;;;;;;;7.27;2.97;;;13.10;99.90;;;;;;6148930;23;20434;-84
2021/09/29 05:25:30;;;;;;;3.40;2.80;;;13.20;99.90;;;;;;6124288;23;20887;-87
2021/09/29 05:27:58;;;;;;;3.87;3.30;;;13.20;99.90;;;;;;6127391;23;20418;-87
2021/09/29 05:30:25;;;;;;;3.53;3.20;;;13.10;99.90;;;;;;6107596;23;20517;-86
2021/09/29 05:32:52;;;;;;;4.70;3.10;;;13.10;99.90;;;;;;6123948;23;20489;-85
2021/09/29 05:35:19;;;;;;;6.33;3.13;;;13.20;99.90;;;;;;6125084;23;20445;-85
2021/09/29 05:37:46;;;;;;;4.13;3.00;;;13.10;99.90;;;;;;6125893;23;20417;-83
2021/09/29 05:40:13;;;;;;;6.20;3.20;;;13.20;99.90;;;;;;6125571;23;20792;-86
2021/09/29 05:42:40;;;;;;;4.40;3.27;;;13.10;99.90;;;;;;6126857;23;20411;-86
2021/09/29 05:45:08;;;;;;;6.73;3.47;;;13.20;99.90;;;;;;6127732;23;20461;-86
2021/09/29 05:47:35;;;;;;;7.10;3.20;;;13.20;99.90;;;;;;6122955;23;20449;-88
2021/09/29 05:50:03;;;;;;;8.53;3.50;;;13.20;99.90;;;;;;6125930;23;20975;-86
2021/09/29 05:52:30;;;;;;;5.00;3.13;;;13.10;99.90;;;;;;6147931;23;20532;-85
2021/09/29 05:54:56;;;;;;;4.27;2.70;;;13.40;99.90;;;;;;6154006;23;20493;-86
2021/09/29 05:57:23;;;;;;;4.37;2.67;;;13.60;99.90;;;;;;6154726;23;20410;-85
2021/09/29 05:59:51;;;;;;;10.13;3.70;;;13.70;99.90;;;;;;6147687;23;20458;-86
2021/09/29 06:02:18;;;;;;;4.83;2.60;;;13.70;99.90;;;;;;6156379;23;20432;-87
2021/09/29 06:04:45;;;;;;;6.17;3.00;;;13.70;99.90;;;;;;6155125;23;20808;-87
2021/09/29 06:07:15;;;;;;;2.40;1.90;;;13.80;99.90;;;;;;6149861;23;20410;-86
2021/09/29 06:10:10;;;;;;;4.67;2.33;;;13.90;99.90;;;;;;6092384;23;20495;-86
2021/09/29 06:12:42;;;;;;;3.13;2.83;;;14.00;99.90;;;;;;6173559;23;20461;-86
2021/09/29 06:15:17;;;;;;;4.80;3.17;;;14.10;99.90;;;;;;6170768;23;20517;-87
2021/09/29 06:17:53;;;;;;;5.13;2.20;;;14.10;99.90;;;;;;6157331;23;20393;-86
2021/09/29 06:20:20;;;;;;;6.93;2.77;;;14.20;99.90;;;;;;6158480;23;20471;-87
2021/09/29 06:22:47;;;;;;;4.27;3.03;;;14.20;99.90;;;;;;6155935;23;21666;-86
2021/09/29 06:25:14;;;;;;;6.57;3.20;;;14.30;99.90;;;;;;6134148;23;20413;-86
2021/09/29 06:27:41;;;;;;;6.50;2.97;;;14.20;99.90;;;;;;6134669;23;20957;-86
2021/09/29 06:30:09;;;;;;;4.53;3.63;;;14.20;99.90;;;;;;6131949;23;20509;-87
2021/09/29 06:32:36;;;;;;;3.03;2.73;;;14.30;99.90;;;;;;6149829;23;20441;-87
2021/09/29 06:35:03;;;;;;;4.40;2.80;;;14.40;99.90;;;;;;6129934;23;20442;-87
2021/09/29 06:37:41;;;;;;;5.50;2.70;;;14.40;99.90;;;;;;6154622;23;20413;-87
2021/09/29 06:40:17;;;;;;;6.60;3.17;;;14.20;99.90;;;;;;6143896;23;20434;-87
2021/09/29 06:42:47;;;;;;;9.20;3.40;;;14.40;99.90;;;;;;6066647;23;20426;-87
2021/09/29 06:45:15;;;;;;;7.63;5.27;;;14.10;99.90;;;;;;6071509;23;20501;-86
2021/09/29 06:47:45;;;;;;;5.50;3.20;;;14.20;99.90;;;;;;6157727;23;20414;-86
2021/09/29 06:50:14;;;;;;;7.13;4.07;;;14.40;99.90;;;;;;6149192;23;20437;-86
2021/09/29 06:52:40;;;;;;;5.83;3.17;;;14.40;99.90;;;;;;6159291;23;20418;-85
2021/09/29 06:55:08;;;;;;;5.77;3.30;;;14.40;99.90;;;;;;6155657;23;20496;-86
2021/09/29 06:57:36;;;;;;;4.77;3.60;;;14.40;99.90;;;;;;6156402;23;20410;-86
2021/09/29 07:00:05;;;;;;;5.13;3.33;;;14.30;99.90;;;;;;6146064;23;20442;-88
2021/09/29 07:02:33;;;;;;;6.30;3.90;;;14.10;99.90;;;;;;6155510;23;21128;-85
2021/09/29 07:04:59;;;;;;;6.70;3.60;;;14.20;99.90;;;;;;6154457;23;20460;-87
2021/09/29 07:07:26;;;;;;;5.47;3.33;;;14.30;99.90;;;;;;6154443;23;20671;-88
2021/09/29 07:09:53;;;;;;;4.17;3.40;;;14.30;99.90;;;;;;6155892;23;20472;-86
2021/09/29 07:12:20;;;;;;;5.37;3.30;;;14.20;99.90;;;;;;6132173;23;20501;-87
2021/09/29 07:14:46;;;;;;;6.60;3.90;;;14.20;99.90;;;;;;6167647;23;20414;-86
2021/09/29 07:17:14;;;;;;;5.83;4.23;;;14.00;99.90;;;;;;6126543;23;21029;-86
2021/09/29 07:19:41;;;;;;;5.00;4.50;;;14.10;99.90;;;;;;6148309;23;20529;-87
2021/09/29 07:22:08;;;;;;;10.43;4.60;;;14.20;99.90;;;;;;6150959;23;20477;-85
2021/09/29 07:24:35;;;;;;;8.83;4.80;;;14.40;99.90;;;;;;6150790;23;20916;-87
2021/09/29 07:27:02;;;;;;;9.50;5.60;;;14.40;99.90;;;;;;6124424;23;20421;-88
2021/09/29 07:29:28;;;;;;;6.57;5.27;;;14.30;99.90;;;;;;6165886;23;20445;-89
2021/09/29 07:31:55;;;;;;;10.97;5.17;;;14.40;99.90;;;;;;6144103;23;20430;-88
2021/09/29 07:34:23;;;;;;;9.70;6.10;;;14.20;99.90;;;;;;6145965;23;20445;-88
2021/09/29 07:36:50;;;;;;;6.33;5.70;;;14.40;99.90;;;;;;6149165;23;20474;-87
2021/09/29 07:39:17;;;;;;;6.73;4.37;;;14.40;99.90;;;;;;6127024;23;20430;-86
2021/09/29 07:41:44;;;;;;;5.50;4.80;;;14.40;99.90;;;;;;6152517;23;21032;-87
2021/09/29 07:44:12;;;;;;;4.70;3.90;;;14.40;99.90;;;;;;6128201;23;20819;-88
2021/09/29 07:46:39;;;;;;;6.20;4.60;;;14.40;99.90;;;;;;6152325;23;20466;-86
2021/09/29 07:49:06;;;;;;;5.83;4.07;;;14.50;99.90;;;;;;6124847;23;20516;-86
2021/09/29 07:51:32;;;;;;;7.60;4.80;;;14.40;99.90;;;;;;6125966;23;20421;-85
2021/09/29 07:53:59;;;;;;;6.70;4.80;;;14.40;99.90;;;;;;6125192;23;20421;-87
2021/09/29 07:56:26;;;;;;;6.57;4.10;;;14.40;99.90;;;;;;6153318;23;20418;-85
2021/09/29 07:58:53;;;;;;;4.60;4.00;;;14.30;99.90;;;;;;6142852;23;20430;-87
2021/09/29 08:01:19;;;;;;;7.40;4.20;;;14.20;99.90;;;;;;6127430;23;20421;-86
2021/09/29 08:03:46;;;;;;;3.83;3.33;;;14.30;99.90;;;;;;6134671;23;20472;-85
2021/09/29 08:06:13;;;;;;;5.93;4.43;;;14.40;99.90;;;;;;6149821;23;20425;-85
2021/09/29 08:08:42;;;;;;;4.20;3.40;;;14.30;99.90;;;;;;6154006;23;20450;-87
2021/09/29 08:11:09;;;;;;;6.43;3.90;;;14.30;99.90;;;;;;6156213;23;20434;-85
2021/09/29 08:13:36;;;;;;;5.27;4.10;;;14.20;99.90;;;;;;6166747;23;20490;-87
2021/09/29 08:16:04;;;;;;;5.03;3.70;;;14.20;99.90;;;;;;6155745;23;20410;-86
2021/09/29 08:18:31;;;;;;;6.90;4.03;;;14.20;99.90;;;;;;6159352;23;20492;-86
2021/09/29 08:21:00;;;;;;;7.90;4.10;;;14.10;99.90;;;;;;6160047;23;20525;-85
2021/09/29 08:23:49;;;;;;;5.90;4.07;;;14.30;99.90;;;;;;6164525;23;21002;-86
2021/09/29 08:29:35;;;;;;;7.00;4.50;;;14.30;99.90;;;;;;6092464;23;20435;-86
2021/09/29 08:38:10;;;;;;;6.13;5.10;;;14.50;99.90;;;;;;6154950;23;20460;-85
2021/09/29 09:21:12;;;;;;;4.00;2.80;;;16.50;99.90;;;;;;6183446;23;20487;-86
2021/09/29 09:23:43;;;;;;;5.07;3.07;;;16.50;99.90;;;;;;6182208;23;20918;-87
2021/09/29 09:44:25;;;;;;;2.80;2.40;;;15.80;99.90;;;;;;6154325;23;20457;-87
2021/09/29 09:47:08;;;;;;;5.17;3.60;;;15.90;99.90;;;;;;6121577;23;20409;-86
2021/09/29 09:49:47;;;;;;;4.17;2.70;;;15.80;99.90;;;;;;6126353;23;20953;-87
2021/09/29 09:52:26;;;;;;;5.00;2.00;;;15.40;99.90;;;;;;6130093;23;20410;-87
2021/09/29 09:55:04;;;;;;;1.87;1.50;;;14.90;99.90;;;;;;6132877;23;20435;-87
2021/09/29 09:57:33;;;;;;;2.13;1.23;;;14.50;99.90;;;;;;6156682;23;20405;-86
2021/09/29 10:00:02;;;;;;;11.87;2.97;;;14.30;99.90;;;;;;6157095;23;20441;-89
2021/09/29 10:02:43;;;;;;;1.97;1.00;;;14.10;99.90;;;;;;6162100;23;20469;-88
2021/09/29 10:05:12;;;;;;;4.57;1.13;;;14.10;99.90;;;;;;6162333;23;21031;-87
2021/09/29 10:07:40;;;;;;;2.00;1.10;;;14.20;99.90;;;;;;6155933;23;20468;-86
2021/09/29 10:24:04;;;;;;;2.20;0.90;;;15.20;99.90;;;;;;6172897;23;20513;-86
2021/09/29 10:26:33;;;;;;;1.67;0.70;;;15.50;99.90;;;;;;6174561;23;20413;-86
2021/09/29 10:29:13;;;;;;;2.13;1.17;;;15.50;99.90;;;;;;6175304;23;20417;-87
2021/09/29 10:34:29;;;;;;;2.23;1.10;;;15.60;99.90;;;;;;6156007;23;20401;-86
2021/09/29 10:43:09;;;;;;;1.40;1.10;;;15.50;99.90;;;;;;6147752;23;20418;-87
2021/09/29 10:45:58;;;;;;;2.83;0.93;;;15.30;99.90;;;;;;6149732;23;21039;-87
2021/09/29 11:32:46;;;;;;;0.60;0.40;;;17.10;96.60;;;;;;6151542;23;20422;-85
2021/09/29 12:09:55;;;;;;;2.10;1.30;;;16.70;98.10;;;;;;6153518;23;20465;-87
2021/09/29 12:14:57;;;;;;;3.00;1.40;;;16.50;99.00;;;;;;6148790;23;20394;-87
2021/09/29 12:17:32;;;;;;;2.37;1.80;;;16.30;98.30;;;;;;6146388;23;20421;-85
2021/09/29 12:20:12;;;;;;;1.27;1.17;;;16.10;98.70;;;;;;6150102;23;20477;-86
2021/09/29 12:22:41;;;;;;;3.20;1.00;;;15.90;99.40;;;;;;6154168;23;20402;-86
2021/09/29 12:25:13;;;;;;;1.83;0.87;;;15.70;99.90;;;;;;6151667;23;21312;-88
2021/09/29 12:30:33;;;;;;;1.20;0.67;;;15.50;99.80;;;;;;6154210;23;20488;-87
2021/09/29 12:35:52;;;;;;;1.23;0.70;;;15.60;98.60;;;;;;6153886;23;20401;-85
2021/09/29 12:38:33;;;;;;;1.00;0.60;;;16.00;98.10;;;;;;6155247;23;20897;-86
2021/09/29 12:41:05;;;;;;;1.00;0.80;;;16.60;97.00;;;;;;6150533;23;20426;-86
2021/09/29 12:43:32;;;;;;;0.63;0.57;;;17.20;95.30;;;;;;6147678;23;20422;-88
2021/09/29 12:46:00;;;;;;;0.60;0.50;;;17.70;93.40;;;;;;6153889;23;20414;-86
2021/09/29 12:48:30;;;;;;;0.80;0.70;;;18.10;92.20;;;;;;6153053;23;20436;-88
2021/09/29 12:51:03;;;;;;;1.97;0.77;;;18.60;91.90;;;;;;6156033;23;20428;-86
2021/09/29 12:53:37;;;;;;;1.40;0.70;;;19.60;89.60;;;;;;6156182;23;20383;-88
2021/09/29 12:56:17;;;;;;;2.10;0.97;;;19.60;88.30;;;;;;6153091;23;20410;-88
2021/09/29 12:58:50;;;;;;;2.10;0.97;;;20.10;86.30;;;;;;6153173;23;20457;-89
2021/09/29 13:01:29;;;;;;;1.53;0.90;;;19.90;85.90;;;;;;6127731;23;20452;-88
2021/09/29 13:04:25;;;;;;;1.40;1.10;;;20.20;85.40;;;;;;6147868;23;20759;-87
2021/09/29 13:06:52;;;;;;;1.87;1.20;;;19.60;87.30;;;;;;6149735;23;20428;-86
2021/09/29 13:09:20;;;;;;;1.57;1.03;;;19.90;87.20;;;;;;6154229;23;20437;-86
2021/09/29 13:12:10;;;;;;;1.90;1.30;;;20.30;85.10;;;;;;6167786;23;20406;-87
2021/09/29 13:14:53;;;;;;;1.30;1.20;;;19.90;86.90;;;;;;6168577;23;20484;-87
2021/09/29 13:17:21;;;;;;;2.50;1.70;;;20.80;84.60;;;;;;6166669;23;20420;-86
2021/09/29 13:19:59;;;;;;;2.53;1.57;;;20.50;83.60;;;;;;6155637;23;20448;-86
2021/09/29 13:22:39;;;;;;;3.07;1.47;;;19.80;85.10;;;;;;6157269;23;20548;-86
2021/09/29 13:40:46;;;;;;;1.57;0.80;;;15.90;88.40;;;;;;6161639;23;20448;-86
2021/09/29 13:43:13;;;;;;;2.97;0.90;;;15.70;90.20;;;;;;6162774;23;20416;-86
2021/09/29 13:45:43;;;;;;;2.97;1.13;;;15.60;91.20;;;;;;6163677;23;20488;-85
2021/09/29 13:48:29;;;;;;;2.00;1.20;;;15.50;92.30;;;;;;6160282;23;20437;-88
2021/09/29 13:51:02;;;;;;;1.77;0.90;;;15.60;92.70;;;;;;6130008;23;20777;-86
2021/09/29 13:53:37;;;;;;;2.00;1.00;;;15.70;93.20;;;;;;6132601;23;20423;-88
2021/09/29 13:56:19;;;;;;;1.80;0.80;;;15.90;92.80;;;;;;6102379;23;20426;-86
2021/09/29 13:59:01;;;;;;;2.60;1.33;;;16.00;92.30;;;;;;6121143;23;20442;-85
2021/09/29 14:29:32;;;;;;;3.87;3.20;;;17.10;90.70;;;;;;6028420;23;20478;-88
2021/09/29 14:32:33;;;;;;;3.97;3.67;;;17.30;91.20;;;;;;6014138;23;20495;-89
2021/09/29 14:35:05;;;;;;;2.90;1.30;;;17.40;91.30;;;;;;6009006;23;20927;-85
2021/09/29 14:45:31;;;;;;;1.20;1.00;;;18.00;90.20;;;;;;5919159;24;20404;-87
2021/09/29 14:49:09;;;;;;;3.23;1.47;;;18.20;90.10;;;;;;5908379;24;20408;-88
2021/09/29 14:52:03;;;;;;;2.30;1.40;;;18.30;90.10;;;;;;5920586;23;20417;-87
2021/09/29 15:04:56;;;;;;;2.60;1.30;;;18.00;88.60;;;;;;6151092;23;20432;-87
2021/09/29 15:07:28;;;;;;;3.47;0.90;;;17.70;90.10;;;;;;6148908;23;20402;-87
2021/09/29 15:12:51;;;;;;;2.30;1.20;;;17.40;90.40;;;;;;6181875;23;20502;-87
2021/09/29 15:15:28;;;;;;;2.73;1.03;;;17.30;90.00;;;;;;6181994;23;20412;-87
2021/09/29 15:18:12;;;;;;;1.60;1.20;;;17.20;89.50;;;;;;6185271;23;20749;-85
2021/09/29 15:48:08;;;;;;;2.87;1.30;;;16.50;86.80;;;;;;6150496;23;20472;-87
2021/09/29 15:56:42;;;;;;;2.83;1.30;;;16.60;82.50;;;;;;6143296;23;20452;-87
2021/09/29 16:06:17;;;;;;;2.23;1.33;;;17.00;81.70;;;;;;6150648;23;20416;-88
2021/09/29 16:19:13;;;;;;;1.93;1.50;;;16.70;84.40;;;;;;6146708;23;20422;-88
2021/09/29 16:30:32;;;;;;;12.70;11.80;;;16.10;88.60;;;;;;6155652;23;21004;-86
2021/09/29 16:33:29;;;;;;;5.53;4.40;;;16.10;89.80;;;;;;6149163;23;20421;-88
2021/09/29 16:36:19;;;;;;;3.13;2.50;;;16.00;90.20;;;;;;6150182;23;20423;-86
2021/09/29 16:38:58;;;;;;;1.60;1.43;;;16.00;90.70;;;;;;6157517;23;20525;-86
2021/09/29 16:41:32;;;;;;;4.00;1.40;;;15.90;91.00;;;;;;6160774;23;20449;-86
2021/09/29 16:44:21;;;;;;;3.47;1.70;;;15.90;91.40;;;;;;6135156;23;20405;-86
2021/09/29 16:46:59;;;;;;;8.40;6.10;;;15.80;91.50;;;;;;6158868;23;20414;-87
2021/09/29 16:49:39;;;;;;;9.13;3.00;;;15.80;91.70;;;;;;6160944;23;20604;-86
2021/09/29 16:52:14;;;;;;;6.40;2.90;;;15.80;91.70;;;;;;6173196;23;20396;-85
2021/09/29 16:54:43;;;;;;;7.70;5.87;;;15.70;91.80;;;;;;6172761;23;20397;-86
2021/09/29 16:57:41;;;;;;;6.00;3.60;;;15.70;91.90;;;;;;6168914;23;20436;-85
2021/09/29 17:00:11;;;;;;;5.03;3.23;;;15.70;91.80;;;;;;6154659;23;20509;-84
2021/09/29 17:02:45;;;;;;;3.60;1.90;;;15.60;91.90;;;;;;6164325;23;20452;-88
2021/09/29 17:05:31;;;;;;;5.30;3.30;;;15.60;91.90;;;;;;6162340;23;20417;-90
2021/09/29 17:08:07;;;;;;;3.20;2.37;;;15.60;91.80;;;;;;6164198;23;20484;-86
2021/09/29 17:10:45;;;;;;;10.33;3.53;;;15.50;92.00;;;;;;6135916;23;20789;-84
2021/09/29 17:13:26;;;;;;;3.07;1.90;;;15.50;92.00;;;;;;6137972;23;20418;-87
2021/09/29 17:16:37;;;;;;;4.57;2.93;;;15.50;92.10;;;;;;6148842;23;20406;-89
2021/09/29 17:19:08;;;;;;;7.13;3.00;;;15.40;91.70;;;;;;6181044;23;20430;-87
2021/09/29 17:21:53;;;;;;;3.00;1.93;;;15.30;91.80;;;;;;6152068;23;20469;-87
2021/09/29 17:31:45;;;;;;;10.27;6.17;;;15.30;91.80;;;;;;6164591;23;20449;-86
2021/09/29 17:52:38;;;;;;;2.90;2.33;;;15.10;91.90;;;;;;6125129;23;20394;-86
2021/09/29 17:55:13;;;;;;;4.07;1.93;;;15.10;91.80;;;;;;6116258;23;20422;-86
2021/09/29 17:57:40;;;;;;;5.13;2.70;;;15.00;91.80;;;;;;6121358;23;20406;-86
2021/09/29 18:00:09;;;;;;;4.20;3.70;;;15.00;91.90;;;;;;6136070;23;20434;-86
2021/09/29 18:02:52;;;;;;;4.47;1.80;;;14.90;92.00;;;;;;6127816;23;20541;-86
2021/09/29 18:08:16;;;;;;;5.77;2.50;;;14.90;92.20;;;;;;6124521;23;21272;-86
2021/09/29 18:10:43;;;;;;;4.03;2.80;;;14.90;92.40;;;;;;6129407;23;20454;-85
2021/09/29 18:13:28;;;;;;;3.70;2.90;;;14.80;92.40;;;;;;6132175;23;20981;-86
2021/09/29 18:16:01;;;;;;;4.33;2.13;;;14.90;92.50;;;;;;6111776;23;20431;-86
2021/09/29 18:22:29;;;;;;;4.43;2.37;;;14.70;93.10;;;;;;6124774;23;20465;-87
2021/09/29 18:25:17;;;;;;;8.60;3.07;;;14.70;93.10;;;;;;6128306;23;20485;-88
2021/09/29 18:28:09;;;;;;;3.10;1.90;;;14.70;93.20;;;;;;6114502;23;20474;-85
2021/09/29 18:30:47;;;;;;;6.57;3.30;;;14.70;93.30;;;;;;6126464;23;20449;-87
2021/09/29 18:33:25;;;;;;;2.37;1.93;;;14.60;93.20;;;;;;6126248;23;20485;-86
2021/09/29 18:36:21;;;;;;;4.60;2.50;;;14.60;93.80;;;;;;6129327;23;20418;-84
2021/09/29 18:38:58;;;;;;;7.73;4.40;;;14.60;93.50;;;;;;6127751;23;20560;-86
2021/09/29 18:41:40;;;;;;;7.50;2.87;;;14.60;93.60;;;;;;6128414;23;20450;-87
2021/09/29 18:44:16;;;;;;;4.63;1.80;;;14.70;93.50;;;;;;6125700;23;20383;-86